createdAt,value
2023-11-18T00:00:55.665Z,1019
2023-11-18T00:02:04.890Z,1019
2023-11-18T00:03:14.024Z,1019
2023-11-18T00:04:23.237Z,1019
2023-11-18T00:05:32.315Z,1019
2023-11-18T00:06:41.623Z,1019.1
2023-11-18T00:07:50.668Z,1019.1
2023-11-18T00:08:59.930Z,1019.1
2023-11-18T00:10:08.176Z,1019.1
2023-11-18T00:11:17.232Z,1019.1
2023-11-18T00:12:26.471Z,1019.1
2023-11-18T00:13:35.681Z,1019.1
2023-11-18T00:14:44.723Z,1019.1
2023-11-18T00:15:53.972Z,1019.1
2023-11-18T00:17:02.109Z,1019.1
2023-11-18T00:18:10.325Z,1019.1
2023-11-18T00:19:19.450Z,1019
2023-11-18T00:20:28.693Z,1019.1
2023-11-18T00:21:37.834Z,1019.1
2023-11-18T00:22:46.986Z,1019.1
2023-11-18T00:23:56.210Z,1019.1
2023-11-18T00:25:05.312Z,1019
2023-11-18T00:26:14.535Z,1019
2023-11-18T00:27:23.662Z,1019
2023-11-18T00:28:32.835Z,1019
2023-11-18T00:29:42.022Z,1019
2023-11-18T00:30:51.209Z,1019
2023-11-18T00:32:00.356Z,1019
2023-11-18T00:33:09.618Z,1019
2023-11-18T00:34:17.825Z,1019
2023-11-18T00:35:26.912Z,1019
2023-11-18T00:36:36.147Z,1018.9
2023-11-18T00:37:45.354Z,1018.9
2023-11-18T00:38:54.431Z,1019
2023-11-18T00:40:02.662Z,1019
2023-11-18T00:41:12.080Z,1019
2023-11-18T00:42:19.983Z,1019
2023-11-18T00:43:28.200Z,1018.9
2023-11-18T00:45:46.578Z,1019
2023-11-18T00:46:55.717Z,1019
2023-11-18T00:48:04.925Z,1019
2023-11-18T00:49:14.034Z,1018.9
2023-11-18T00:50:23.218Z,1019
2023-11-18T00:51:32.515Z,1019
2023-11-18T00:52:41.553Z,1018.9
2023-11-18T00:53:50.833Z,1019
2023-11-18T00:54:59.898Z,1019
2023-11-18T00:56:09.439Z,1019
2023-11-18T00:57:18.246Z,1019
2023-11-18T00:58:26.656Z,1019
2023-11-18T00:59:35.671Z,1019
2023-11-18T01:00:44.889Z,1019
2023-11-18T01:01:53.941Z,1019.1
2023-11-18T01:03:03.214Z,1019
2023-11-18T01:04:12.353Z,1019
2023-11-18T01:06:30.696Z,1019
2023-11-18T01:07:38.934Z,1019
2023-11-18T01:08:47.066Z,1019
2023-11-18T01:09:56.371Z,1019
2023-11-18T01:11:04.499Z,1019
2023-11-18T01:12:13.822Z,1019
2023-11-18T01:13:22.747Z,1019.1
2023-11-18T01:14:32.017Z,1019
2023-11-18T01:16:50.279Z,1019.1
2023-11-18T01:19:08.608Z,1019
2023-11-18T01:20:17.820Z,1019
2023-11-18T01:22:36.164Z,1019.1
2023-11-18T01:23:44.367Z,1019.1
2023-11-18T01:24:52.508Z,1019.1
2023-11-18T01:26:01.694Z,1019.2
2023-11-18T01:27:10.879Z,1019.2
2023-11-18T01:28:20.023Z,1019.2
2023-11-18T01:29:29.201Z,1019.2
2023-11-18T01:30:38.381Z,1019.2
2023-11-18T01:31:47.539Z,1019.2
2023-11-18T01:32:56.739Z,1019.2
2023-11-18T01:34:05.928Z,1019.2
2023-11-18T01:35:14.165Z,1019.2
2023-11-18T01:36:22.351Z,1019.2
2023-11-18T01:37:31.449Z,1019.2
2023-11-18T01:38:40.622Z,1019.2
2023-11-18T01:40:58.970Z,1019.2
2023-11-18T01:42:08.143Z,1019.2
2023-11-18T01:43:17.347Z,1019.2
2023-11-18T01:44:26.492Z,1019.2
2023-11-18T01:45:35.846Z,1019.2
2023-11-18T01:46:44.868Z,1019.2
2023-11-18T01:47:54.063Z,1019.3
2023-11-18T01:49:03.202Z,1019.3
2023-11-18T01:50:12.377Z,1019.3
2023-11-18T01:51:20.534Z,1019.3
2023-11-18T01:52:29.727Z,1019.3
2023-11-18T01:53:38.884Z,1019.3
2023-11-18T01:54:48.061Z,1019.2
2023-11-18T01:55:57.237Z,1019.2
2023-11-18T01:57:06.432Z,1019.2
2023-11-18T01:58:15.579Z,1019.2
2023-11-18T01:59:23.844Z,1019.2
2023-11-18T02:00:31.999Z,1019.2
2023-11-18T02:01:41.141Z,1019.2
2023-11-18T02:02:50.323Z,1019.2
2023-11-18T02:03:59.492Z,1019.3
2023-11-18T02:05:08.726Z,1019.2
2023-11-18T02:06:17.989Z,1019.2
2023-11-18T02:07:27.112Z,1019.2
2023-11-18T02:08:36.195Z,1019.2
2023-11-18T02:10:54.561Z,1019.2
2023-11-18T02:12:03.807Z,1019.2
2023-11-18T02:13:12.875Z,1019.2
2023-11-18T02:15:31.252Z,1019.1
2023-11-18T02:16:39.451Z,1019.1
2023-11-18T02:17:47.612Z,1019.1
2023-11-18T02:18:56.780Z,1019.2
2023-11-18T02:20:05.957Z,1019.2
2023-11-18T02:21:15.151Z,1019.1
2023-11-18T02:22:24.303Z,1019.1
2023-11-18T02:23:33.504Z,1019.1
2023-11-18T02:24:42.672Z,1019.1
2023-11-18T02:25:51.864Z,1019
2023-11-18T02:27:01.003Z,1019.1
2023-11-18T02:28:09.167Z,1019
2023-11-18T02:29:18.350Z,1019.1
2023-11-18T02:30:26.538Z,1019
2023-11-18T02:31:35.741Z,1019.1
2023-11-18T02:32:44.889Z,1019.1
2023-11-18T02:33:54.078Z,1019.1
2023-11-18T02:36:12.427Z,1019.2
2023-11-18T02:37:21.665Z,1019.2
2023-11-18T02:38:30.797Z,1019.2
2023-11-18T02:39:39.952Z,1019.2
2023-11-18T02:40:49.104Z,1019.2
2023-11-18T02:41:58.376Z,1019.2
2023-11-18T02:43:07.444Z,1019.2
2023-11-18T02:44:16.614Z,1019.1
2023-11-18T02:45:24.833Z,1019.1
2023-11-18T02:46:33.984Z,1019.1
2023-11-18T02:47:43.154Z,1019.1
2023-11-18T02:48:52.357Z,1019.1
2023-11-18T02:50:01.545Z,1019.1
2023-11-18T02:51:10.690Z,1019.1
2023-11-18T02:52:18.904Z,1019.1
2023-11-18T02:53:27.055Z,1019
2023-11-18T02:54:36.269Z,1019
2023-11-18T02:56:54.614Z,1019
2023-11-18T02:58:03.758Z,1019
2023-11-18T02:59:12.953Z,1019
2023-11-18T03:00:22.112Z,1019
2023-11-18T03:01:31.302Z,1019.2
2023-11-18T03:02:40.464Z,1019
2023-11-18T03:03:49.630Z,1019
2023-11-18T03:04:58.802Z,1019
2023-11-18T03:07:17.160Z,1018.9
2023-11-18T03:08:25.356Z,1018.9
2023-11-18T03:09:33.616Z,1018.9
2023-11-18T03:10:42.721Z,1019
2023-11-18T03:11:52.007Z,1018.9
2023-11-18T03:13:01.061Z,1018.9
2023-11-18T03:14:10.255Z,1018.9
2023-11-18T03:15:19.425Z,1018.9
2023-11-18T03:16:28.641Z,1018.9
2023-11-18T03:17:37.764Z,1018.9
2023-11-18T03:18:46.939Z,1018.9
2023-11-18T03:19:55.122Z,1018.8
2023-11-18T03:21:03.313Z,1018.9
2023-11-18T03:23:20.690Z,1018.8
2023-11-18T03:24:29.855Z,1018.8
2023-11-18T03:25:39.028Z,1018.8
2023-11-18T03:26:48.179Z,1018.8
2023-11-18T03:27:57.349Z,1018.8
2023-11-18T03:29:06.546Z,1018.8
2023-11-18T03:30:15.767Z,1018.7
2023-11-18T03:31:24.868Z,1018.8
2023-11-18T03:32:34.039Z,1018.8
2023-11-18T03:33:43.227Z,1018.8
2023-11-18T03:34:52.408Z,1018.8
2023-11-18T03:36:01.571Z,1018.7
2023-11-18T03:37:09.965Z,1018.7
2023-11-18T03:38:18.936Z,1018.7
2023-11-18T03:39:28.096Z,1018.7
2023-11-18T03:40:37.284Z,1018.7
2023-11-18T03:41:46.457Z,1018.7
2023-11-18T03:44:04.861Z,1018.7
2023-11-18T03:45:14.093Z,1018.7
2023-11-18T03:46:22.200Z,1018.8
2023-11-18T03:47:30.352Z,1018.8
2023-11-18T03:48:39.566Z,1018.7
2023-11-18T03:49:48.696Z,1018.7
2023-11-18T03:50:57.881Z,1018.6
2023-11-18T03:52:07.107Z,1018.6
2023-11-18T03:53:16.234Z,1018.7
2023-11-18T03:54:25.394Z,1018.7
2023-11-18T03:55:34.560Z,1018.7
2023-11-18T03:56:43.770Z,1018.7
2023-11-18T03:57:52.970Z,1018.7
2023-11-18T03:59:02.110Z,1018.7
2023-11-18T04:00:11.265Z,1018.7
2023-11-18T04:01:20.425Z,1018.8
2023-11-18T04:02:28.624Z,1018.8
2023-11-18T04:03:37.807Z,1018.8
2023-11-18T04:04:46.982Z,1018.8
2023-11-18T04:05:56.136Z,1018.8
2023-11-18T04:07:05.319Z,1018.8
2023-11-18T04:08:14.488Z,1018.8
2023-11-18T04:09:23.660Z,1018.7
2023-11-18T04:10:31.973Z,1018.7
2023-11-18T04:11:40.068Z,1018.8
2023-11-18T04:13:57.407Z,1018.8
2023-11-18T04:15:06.653Z,1018.8
2023-11-18T04:16:15.764Z,1018.7
2023-11-18T04:17:24.940Z,1018.7
2023-11-18T04:18:34.102Z,1018.7
2023-11-18T04:19:43.306Z,1018.6
2023-11-18T04:20:52.477Z,1018.6
2023-11-18T04:22:01.724Z,1018.6
2023-11-18T04:23:10.808Z,1018.6
2023-11-18T04:24:20.086Z,1018.6
2023-11-18T04:25:29.164Z,1018.6
2023-11-18T04:26:38.315Z,1018.6
2023-11-18T04:27:46.527Z,1018.7
2023-11-18T04:28:55.685Z,1018.6
2023-11-18T04:30:04.872Z,1018.6
2023-11-18T04:31:13.068Z,1018.6
2023-11-18T04:32:22.222Z,1018.6
2023-11-18T04:33:31.452Z,1018.6
2023-11-18T04:34:40.578Z,1018.6
2023-11-18T04:35:49.746Z,1018.6
2023-11-18T04:36:57.938Z,1018.5
2023-11-18T04:38:06.144Z,1018.5
2023-11-18T04:39:15.312Z,1018.5
2023-11-18T04:40:24.473Z,1018.5
2023-11-18T04:41:33.659Z,1018.5
2023-11-18T04:42:42.824Z,1018.5
2023-11-18T04:43:51.983Z,1018.4
2023-11-18T04:45:01.171Z,1018.5
2023-11-18T04:46:10.498Z,1018.5
2023-11-18T04:47:19.545Z,1018.4
2023-11-18T04:48:28.692Z,1018.4
2023-11-18T04:49:37.867Z,1018.4
2023-11-18T04:50:47.051Z,1018.4
2023-11-18T04:51:56.347Z,1018.4
2023-11-18T04:53:04.419Z,1018.3
2023-11-18T04:54:13.575Z,1018.3
2023-11-18T04:55:22.763Z,1018.2
2023-11-18T04:56:31.939Z,1018.2
2023-11-18T04:57:41.127Z,1018.3
2023-11-18T04:58:50.278Z,1018.3
2023-11-18T05:01:07.609Z,1018.3
2023-11-18T05:02:15.845Z,1018.2
2023-11-18T05:03:24.025Z,1018.3
2023-11-18T05:04:33.211Z,1018.2
2023-11-18T05:05:42.361Z,1018.3
2023-11-18T05:06:51.557Z,1018.3
2023-11-18T05:08:00.733Z,1018.3
2023-11-18T05:09:10.031Z,1018.3
2023-11-18T05:10:19.066Z,1018.2
2023-11-18T05:11:28.300Z,1018.2
2023-11-18T05:12:37.399Z,1018.1
2023-11-18T05:13:46.589Z,1018.1
2023-11-18T05:14:55.768Z,1018.1
2023-11-18T05:16:04.928Z,1018.1
2023-11-18T05:17:14.111Z,1018.1
2023-11-18T05:18:23.325Z,1018.1
2023-11-18T05:19:31.545Z,1018.1
2023-11-18T05:20:40.656Z,1018
2023-11-18T05:21:49.807Z,1018.1
2023-11-18T05:22:58.976Z,1018
2023-11-18T05:24:08.173Z,1018
2023-11-18T05:25:17.319Z,1018
2023-11-18T05:27:35.676Z,1017.9
2023-11-18T05:28:44.841Z,1017.8
2023-11-18T05:29:54.004Z,1017.8
2023-11-18T05:31:03.190Z,1017.8
2023-11-18T05:32:12.380Z,1017.7
2023-11-18T05:33:21.535Z,1017.9
2023-11-18T05:34:29.743Z,1017.8
2023-11-18T05:35:38.904Z,1017.8
2023-11-18T05:36:48.070Z,1017.8
2023-11-18T05:37:57.242Z,1017.8
2023-11-18T05:39:06.452Z,1017.8
2023-11-18T05:40:15.601Z,1017.8
2023-11-18T05:41:24.768Z,1017.7
2023-11-18T05:43:43.119Z,1017.8
2023-11-18T05:44:52.343Z,1017.8
2023-11-18T05:46:01.463Z,1017.7
2023-11-18T05:47:10.719Z,1017.8
2023-11-18T05:48:19.811Z,1017.8
2023-11-18T05:49:27.998Z,1017.8
2023-11-18T05:50:37.215Z,1018
2023-11-18T05:51:46.334Z,1017.9
2023-11-18T05:52:55.541Z,1017.9
2023-11-18T05:54:04.694Z,1017.9
2023-11-18T05:55:13.867Z,1017.8
2023-11-18T05:56:23.068Z,1017.8
2023-11-18T05:58:41.417Z,1017.8
2023-11-18T05:59:50.555Z,1017.8
2023-11-18T06:00:59.742Z,1017.8
2023-11-18T06:02:09.011Z,1017.8
2023-11-18T06:03:18.068Z,1017.8
2023-11-18T06:04:26.272Z,1017.9
2023-11-18T06:05:35.441Z,1017.9
2023-11-18T06:06:44.629Z,1017.9
2023-11-18T06:09:02.968Z,1017.9
2023-11-18T06:10:12.121Z,1017.9
2023-11-18T06:11:21.361Z,1017.9
2023-11-18T06:12:30.482Z,1017.8
2023-11-18T06:14:48.847Z,1017.8
2023-11-18T06:15:57.037Z,1017.8
2023-11-18T06:17:05.208Z,1017.8
2023-11-18T06:18:14.386Z,1017.8
2023-11-18T06:19:23.548Z,1017.8
2023-11-18T06:21:42.020Z,1017.9
2023-11-18T06:22:51.135Z,1017.9
2023-11-18T06:24:00.258Z,1017.8
2023-11-18T06:25:09.567Z,1017.8
2023-11-18T06:26:18.591Z,1017.7
2023-11-18T06:27:27.796Z,1017.7
2023-11-18T06:28:36.938Z,1017.7
2023-11-18T06:29:46.118Z,1017.7
2023-11-18T06:30:55.293Z,1017.7
2023-11-18T06:32:03.466Z,1017.8
2023-11-18T06:33:12.642Z,1017.8
2023-11-18T06:34:21.838Z,1017.8
2023-11-18T06:35:31.006Z,1017.8
2023-11-18T06:37:49.349Z,1017.8
2023-11-18T06:38:57.687Z,1017.8
2023-11-18T06:40:05.739Z,1017.8
2023-11-18T06:41:13.950Z,1017.7
2023-11-18T06:42:23.110Z,1017.8
2023-11-18T06:43:32.289Z,1017.7
2023-11-18T06:44:41.476Z,1017.7
2023-11-18T06:45:50.643Z,1017.7
2023-11-18T06:46:59.790Z,1017.7
2023-11-18T06:48:08.970Z,1017.7
2023-11-18T06:49:18.269Z,1017.7
2023-11-18T06:50:27.315Z,1017.7
2023-11-18T06:51:35.565Z,1017.6
2023-11-18T06:52:44.686Z,1017.6
2023-11-18T06:53:52.889Z,1017.7
2023-11-18T06:55:02.026Z,1017.6
2023-11-18T06:56:11.224Z,1017.7
2023-11-18T06:58:29.579Z,1017.7
2023-11-18T06:59:38.837Z,1017.7
2023-11-18T07:00:47.912Z,1017.7
2023-11-18T07:01:57.179Z,1017.7
2023-11-18T07:03:06.261Z,1017.7
2023-11-18T07:05:24.625Z,1017.7
2023-11-18T07:06:32.796Z,1017.7
2023-11-18T07:07:42.002Z,1017.7
2023-11-18T07:08:50.264Z,1017.7
2023-11-18T07:11:08.514Z,1017.8
2023-11-18T07:12:17.681Z,1017.7
2023-11-18T07:13:26.852Z,1017.7
2023-11-18T07:14:36.033Z,1017.7
2023-11-18T07:15:45.209Z,1017.7
2023-11-18T07:16:54.361Z,1017.7
2023-11-18T07:19:12.757Z,1017.7
2023-11-18T07:20:21.914Z,1017.8
2023-11-18T07:21:31.062Z,1017.8
2023-11-18T07:23:49.432Z,1017.7
2023-11-18T07:24:57.605Z,1017.7
2023-11-18T07:26:06.790Z,1017.7
2023-11-18T07:27:15.954Z,1017.7
2023-11-18T07:28:25.138Z,1017.8
2023-11-18T07:29:34.310Z,1017.8
2023-11-18T07:30:43.476Z,1017.9
2023-11-18T07:31:52.658Z,1017.9
2023-11-18T07:33:01.839Z,1017.9
2023-11-18T07:35:20.173Z,1017.9
2023-11-18T07:36:29.336Z,1017.9
2023-11-18T07:37:38.512Z,1017.9
2023-11-18T07:38:47.706Z,1017.8
2023-11-18T07:39:55.901Z,1017.8
2023-11-18T07:41:05.066Z,1017.8
2023-11-18T07:42:14.228Z,1017.7
2023-11-18T07:43:23.400Z,1017.6
2023-11-18T07:44:32.631Z,1017.6
2023-11-18T07:45:41.784Z,1017.5
2023-11-18T07:46:50.926Z,1017.5
2023-11-18T07:47:59.140Z,1017.6
2023-11-18T07:49:07.317Z,1017.6
2023-11-18T07:50:16.484Z,1017.5
2023-11-18T07:51:25.678Z,1017.5
2023-11-18T07:52:34.837Z,1017.4
2023-11-18T07:53:43.978Z,1017.4
2023-11-18T07:54:53.159Z,1017.5
2023-11-18T07:56:02.337Z,1017.5
2023-11-18T07:57:11.506Z,1017.5
2023-11-18T07:58:20.667Z,1017.5
2023-11-18T07:59:28.883Z,1017.5
2023-11-18T08:00:37.071Z,1017.4
2023-11-18T08:01:46.226Z,1017.5
2023-11-18T08:02:55.426Z,1017.4
2023-11-18T08:04:04.583Z,1017.5
2023-11-18T08:05:13.755Z,1017.5
2023-11-18T08:06:22.938Z,1017.5
2023-11-18T08:07:32.096Z,1017.6
2023-11-18T08:08:41.276Z,1017.6
2023-11-18T08:10:59.605Z,1017.6
2023-11-18T08:12:08.781Z,1017.6
2023-11-18T08:13:17.994Z,1017.5
2023-11-18T08:14:27.139Z,1017.5
2023-11-18T08:15:35.344Z,1017.5
2023-11-18T08:16:44.562Z,1017.6
2023-11-18T08:17:53.682Z,1017.6
2023-11-18T08:19:02.854Z,1017.6
2023-11-18T08:20:12.033Z,1017.6
2023-11-18T08:21:21.235Z,1017.6
2023-11-18T08:22:29.401Z,1017.7
2023-11-18T08:23:37.661Z,1017.7
2023-11-18T08:24:45.800Z,1017.8
2023-11-18T08:25:54.962Z,1017.7
2023-11-18T08:27:04.120Z,1017.7
2023-11-18T08:28:13.283Z,1017.7
2023-11-18T08:29:22.461Z,1017.7
2023-11-18T08:30:31.660Z,1017.7
2023-11-18T08:31:40.854Z,1017.6
2023-11-18T08:32:50.105Z,1017.7
2023-11-18T08:33:59.205Z,1017.7
2023-11-18T08:35:08.337Z,1017.7
2023-11-18T08:36:17.524Z,1017.7
2023-11-18T08:37:26.672Z,1017.7
2023-11-18T08:38:35.846Z,1017.6
2023-11-18T08:39:44.042Z,1017.6
2023-11-18T08:40:53.236Z,1017.6
2023-11-18T08:42:02.389Z,1017.6
2023-11-18T08:43:11.589Z,1017.6
2023-11-18T08:44:20.732Z,1017.6
2023-11-18T08:45:29.892Z,1017.6
2023-11-18T08:47:47.288Z,1017.6
2023-11-18T08:48:55.468Z,1017.6
2023-11-18T08:50:03.676Z,1017.6
2023-11-18T08:51:12.831Z,1017.6
2023-11-18T08:52:22.005Z,1017.5
2023-11-18T08:53:31.177Z,1017.4
2023-11-18T08:54:40.431Z,1017.4
2023-11-18T08:55:49.612Z,1017.4
2023-11-18T08:56:58.712Z,1017.4
2023-11-18T08:58:07.882Z,1017.4
2023-11-18T08:59:17.241Z,1017.4
2023-11-18T09:00:26.241Z,1017.4
2023-11-18T09:01:35.501Z,1017.4
2023-11-18T09:02:44.559Z,1017.4
2023-11-18T09:03:53.743Z,1017.3
2023-11-18T09:05:02.000Z,1017.3
2023-11-18T09:06:11.206Z,1017.3
2023-11-18T09:07:20.262Z,1017.3
2023-11-18T09:08:29.450Z,1017.2
2023-11-18T09:09:38.610Z,1017.2
2023-11-18T09:10:47.790Z,1017.2
2023-11-18T09:11:55.974Z,1017.2
2023-11-18T09:13:04.175Z,1017.1
2023-11-18T09:14:12.392Z,1017.2
2023-11-18T09:15:21.535Z,1017.1
2023-11-18T09:16:30.725Z,1017.2
2023-11-18T09:17:39.881Z,1017.2
2023-11-18T09:18:49.058Z,1017.2
2023-11-18T09:19:58.229Z,1017.2
2023-11-18T09:21:07.399Z,1017.1
2023-11-18T09:22:16.579Z,1017
2023-11-18T09:23:25.748Z,1016.9
2023-11-18T09:24:34.908Z,1016.9
2023-11-18T09:25:44.116Z,1016.9
2023-11-18T09:26:53.263Z,1016.8
2023-11-18T09:28:02.452Z,1016.8
2023-11-18T09:29:10.639Z,1016.7
2023-11-18T09:30:19.823Z,1016.7
2023-11-18T09:31:28.981Z,1016.6
2023-11-18T09:32:38.154Z,1016.5
2023-11-18T09:33:47.330Z,1016.5
2023-11-18T09:34:56.500Z,1016.5
2023-11-18T09:36:05.665Z,1016.5
2023-11-18T09:37:14.838Z,1016.5
2023-11-18T09:38:24.046Z,1016.5
2023-11-18T09:39:33.192Z,1016.5
2023-11-18T09:40:42.372Z,1016.5
2023-11-18T09:41:51.553Z,1016.6
2023-11-18T09:43:00.775Z,1016.5
2023-11-18T09:44:09.024Z,1016.5
2023-11-18T09:45:18.070Z,1016.5
2023-11-18T09:46:27.320Z,1016.6
2023-11-18T09:47:36.420Z,1016.5
2023-11-18T09:48:45.620Z,1016.5
2023-11-18T09:49:54.755Z,1016.5
2023-11-18T09:51:03.934Z,1016.5
2023-11-18T09:52:12.139Z,1016.6
2023-11-18T09:53:20.320Z,1016.5
2023-11-18T09:54:29.516Z,1016.5
2023-11-18T09:55:38.681Z,1016.4
2023-11-18T09:56:47.841Z,1016.4
2023-11-18T09:57:57.017Z,1016.5
2023-11-18T09:59:06.233Z,1016.5
2023-11-18T10:00:15.358Z,1016.5
2023-11-18T10:01:24.529Z,1016.6
2023-11-18T10:02:33.704Z,1016.5
2023-11-18T10:03:42.995Z,1016.5
2023-11-18T10:04:52.049Z,1016.5
2023-11-18T10:06:01.216Z,1016.5
2023-11-18T10:07:10.404Z,1016.5
2023-11-18T10:08:18.580Z,1016.5
2023-11-18T10:09:27.760Z,1016.5
2023-11-18T10:10:36.919Z,1016.5
2023-11-18T10:11:46.111Z,1016.5
2023-11-18T10:12:55.279Z,1016.5
2023-11-18T10:14:04.465Z,1016.5
2023-11-18T10:15:12.649Z,1016.5
2023-11-18T10:16:20.861Z,1016.4
2023-11-18T10:17:29.085Z,1016.4
2023-11-18T10:18:38.202Z,1016.4
2023-11-18T10:19:47.374Z,1016.4
2023-11-18T10:20:56.570Z,1016.4
2023-11-18T10:22:05.718Z,1016.4
2023-11-18T10:23:14.895Z,1016.3
2023-11-18T10:24:24.063Z,1016.2
2023-11-18T10:25:33.239Z,1016.3
2023-11-18T10:26:42.408Z,1016.3
2023-11-18T10:27:51.592Z,1016.2
2023-11-18T10:29:00.763Z,1016.3
2023-11-18T10:30:09.943Z,1016.2
2023-11-18T10:31:19.094Z,1016.3
2023-11-18T10:32:27.289Z,1016.2
2023-11-18T10:33:36.469Z,1016.2
2023-11-18T10:34:45.631Z,1016.3
2023-11-18T10:35:54.817Z,1016.2
2023-11-18T10:37:03.993Z,1016.2
2023-11-18T10:38:13.145Z,1016.2
2023-11-18T10:39:21.365Z,1016.2
2023-11-18T10:40:29.561Z,1016.2
2023-11-18T10:41:38.853Z,1016.1
2023-11-18T10:42:47.892Z,1016.1
2023-11-18T10:43:57.065Z,1016.1
2023-11-18T10:45:06.346Z,1016
2023-11-18T10:46:15.405Z,1016
2023-11-18T10:47:24.582Z,1016
2023-11-18T10:48:33.758Z,1016
2023-11-18T10:49:42.993Z,1015.9
2023-11-18T10:50:52.117Z,1015.9
2023-11-18T10:52:01.275Z,1015.9
2023-11-18T10:53:10.453Z,1015.9
2023-11-18T10:54:19.626Z,1015.8
2023-11-18T10:55:27.804Z,1015.8
2023-11-18T10:56:36.995Z,1015.8
2023-11-18T10:57:46.161Z,1015.7
2023-11-18T10:58:55.338Z,1015.7
2023-11-18T11:00:04.503Z,1015.7
2023-11-18T11:01:13.669Z,1015.6
2023-11-18T11:02:22.858Z,1015.5
2023-11-18T11:03:32.089Z,1015.5
2023-11-18T11:04:41.195Z,1015.5
2023-11-18T11:05:50.381Z,1015.4
2023-11-18T11:06:59.543Z,1015.4
2023-11-18T11:08:08.733Z,1015.4
2023-11-18T11:09:17.912Z,1015.3
2023-11-18T11:10:26.088Z,1015.4
2023-11-18T11:11:35.242Z,1015.3
2023-11-18T11:12:44.417Z,1015.3
2023-11-18T11:13:53.598Z,1015.2
2023-11-18T11:15:02.804Z,1015.1
2023-11-18T11:16:11.992Z,1015.1
2023-11-18T11:17:21.124Z,1015.1
2023-11-18T11:18:30.291Z,1015.1
2023-11-18T11:19:39.461Z,1015.1
2023-11-18T11:20:48.636Z,1015
2023-11-18T11:21:57.831Z,1015.1
2023-11-18T11:23:07.002Z,1015.1
2023-11-18T11:24:16.159Z,1015.1
2023-11-18T11:25:24.341Z,1015.2
2023-11-18T11:26:33.514Z,1015.3
2023-11-18T11:27:42.686Z,1015.3
2023-11-18T11:28:51.851Z,1015.4
2023-11-18T11:30:01.034Z,1015.4
2023-11-18T11:31:10.209Z,1015.4
2023-11-18T11:32:19.389Z,1015.4
2023-11-18T11:33:28.551Z,1015.4
2023-11-18T11:34:37.734Z,1015.4
2023-11-18T11:35:46.903Z,1015.3
2023-11-18T11:36:56.086Z,1015.2
2023-11-18T11:38:05.268Z,1015.3
2023-11-18T11:39:14.449Z,1015.2
2023-11-18T11:40:22.617Z,1015.2
2023-11-18T11:41:31.776Z,1015.1
2023-11-18T11:42:41.120Z,1015.1
2023-11-18T11:43:50.265Z,1015.1
2023-11-18T11:44:59.381Z,1015.1
2023-11-18T11:46:08.568Z,1015.1
2023-11-18T11:47:17.641Z,1015.1
2023-11-18T11:48:26.824Z,1015
2023-11-18T11:49:35.991Z,1015
2023-11-18T11:50:45.154Z,1015
2023-11-18T11:51:54.340Z,1015.1
2023-11-18T11:53:03.516Z,1015
2023-11-18T11:54:12.681Z,1015
2023-11-18T11:55:20.867Z,1015
2023-11-18T11:56:30.054Z,1015
2023-11-18T11:57:39.230Z,1015
2023-11-18T11:58:48.392Z,1015
2023-11-18T11:59:57.571Z,1014.9
2023-11-18T12:01:06.739Z,1015
2023-11-18T12:02:15.925Z,1015
2023-11-18T12:03:25.074Z,1015
2023-11-18T12:04:34.258Z,1015
2023-11-18T12:05:43.421Z,1015
2023-11-18T12:06:52.603Z,1015
2023-11-18T12:08:01.775Z,1015
2023-11-18T12:09:10.945Z,1015
2023-11-18T12:10:19.136Z,1014.9
2023-11-18T12:11:28.323Z,1014.9
2023-11-18T12:12:37.482Z,1014.9
2023-11-18T12:13:45.685Z,1014.9
2023-11-18T12:14:54.853Z,1014.8
2023-11-18T12:16:04.022Z,1014.8
2023-11-18T12:17:13.250Z,1014.8
2023-11-18T12:18:22.368Z,1014.8
2023-11-18T12:19:31.551Z,1014.8
2023-11-18T12:20:40.717Z,1014.8
2023-11-18T12:21:49.966Z,1014.8
2023-11-18T12:22:59.046Z,1014.8
2023-11-18T12:24:08.243Z,1014.7
2023-11-18T12:25:17.411Z,1014.8
2023-11-18T12:26:26.612Z,1014.8
2023-11-18T12:27:35.782Z,1014.6
2023-11-18T12:28:44.022Z,1014.6
2023-11-18T12:29:52.324Z,1014.5
2023-11-18T12:31:00.332Z,1014.4
2023-11-18T12:32:09.499Z,1014.5
2023-11-18T12:33:18.682Z,1014.4
2023-11-18T12:34:27.884Z,1014.4
2023-11-18T12:35:37.022Z,1014.4
2023-11-18T12:36:46.193Z,1014.4
2023-11-18T12:37:55.377Z,1014.4
2023-11-18T12:39:04.530Z,1014.3
2023-11-18T12:40:13.712Z,1014.2
2023-11-18T12:41:22.878Z,1014.1
2023-11-18T12:42:32.064Z,1014.1
2023-11-18T12:43:41.225Z,1014
2023-11-18T12:44:50.529Z,1014
2023-11-18T12:45:58.602Z,1014
2023-11-18T12:47:07.763Z,1014
2023-11-18T12:48:16.950Z,1014
2023-11-18T12:49:26.191Z,1013.9
2023-11-18T12:50:35.283Z,1013.9
2023-11-18T12:51:44.460Z,1013.9
2023-11-18T12:52:53.628Z,1013.9
2023-11-18T12:54:02.805Z,1013.9
2023-11-18T12:55:11.965Z,1013.9
2023-11-18T12:56:21.152Z,1013.9
2023-11-18T12:57:30.399Z,1013.9
2023-11-18T12:58:39.517Z,1013.9
2023-11-18T12:59:48.760Z,1013.9
2023-11-18T13:00:56.859Z,1013.8
2023-11-18T13:02:06.092Z,1013.9
2023-11-18T13:03:15.198Z,1013.9
2023-11-18T13:04:24.393Z,1013.8
2023-11-18T13:05:33.568Z,1013.8
2023-11-18T13:06:42.718Z,1013.8
2023-11-18T13:07:51.896Z,1013.8
2023-11-18T13:09:01.096Z,1013.7
2023-11-18T13:11:19.422Z,1013.7
2023-11-18T13:12:28.586Z,1013.7
2023-11-18T13:13:37.780Z,1013.6
2023-11-18T13:14:46.972Z,1013.6
2023-11-18T13:15:55.139Z,1013.5
2023-11-18T13:17:04.307Z,1013.5
2023-11-18T13:18:13.464Z,1013.5
2023-11-18T13:19:22.658Z,1013.5
2023-11-18T13:20:31.840Z,1013.5
2023-11-18T13:21:41.065Z,1013.5
2023-11-18T13:22:50.346Z,1013.5
2023-11-18T13:23:59.341Z,1013.4
2023-11-18T13:25:08.584Z,1013.4
2023-11-18T13:26:17.690Z,1013.4
2023-11-18T13:27:26.885Z,1013.4
2023-11-18T13:28:36.050Z,1013.4
2023-11-18T13:29:45.309Z,1013.5
2023-11-18T13:30:53.486Z,1013.4
2023-11-18T13:32:02.570Z,1013.4
2023-11-18T13:33:11.767Z,1013.4
2023-11-18T13:34:20.939Z,1013.4
2023-11-18T13:35:30.098Z,1013.3
2023-11-18T13:36:39.257Z,1013.3
2023-11-18T13:37:48.533Z,1013.2
2023-11-18T13:38:57.594Z,1013.2
2023-11-18T13:40:06.776Z,1013.3
2023-11-18T13:41:15.959Z,1013.2
2023-11-18T13:42:25.130Z,1013.2
2023-11-18T13:43:34.311Z,1013.2
2023-11-18T13:44:43.463Z,1013.1
2023-11-18T13:45:51.680Z,1013.1
2023-11-18T13:47:00.848Z,1013.1
2023-11-18T13:48:09.997Z,1013
2023-11-18T13:50:28.362Z,1013
2023-11-18T13:51:37.531Z,1013
2023-11-18T13:52:46.763Z,1013
2023-11-18T13:53:55.867Z,1013
2023-11-18T13:55:05.058Z,1013
2023-11-18T13:56:14.224Z,1013
2023-11-18T13:57:23.409Z,1013
2023-11-18T13:58:32.575Z,1013
2023-11-18T13:59:41.731Z,1012.9
2023-11-18T14:00:49.914Z,1012.9
2023-11-18T14:01:59.099Z,1012.9
2023-11-18T14:03:08.349Z,1012.9
2023-11-18T14:04:17.453Z,1012.9
2023-11-18T14:05:26.619Z,1012.9
2023-11-18T14:06:35.811Z,1012.8
2023-11-18T14:07:44.976Z,1012.8
2023-11-18T14:08:54.121Z,1012.8
2023-11-18T14:10:03.309Z,1012.8
2023-11-18T14:11:12.661Z,1012.8
2023-11-18T14:12:21.779Z,1012.8
2023-11-18T14:13:30.823Z,1012.8
2023-11-18T14:14:39.992Z,1012.9
2023-11-18T14:16:57.362Z,1012.8
2023-11-18T14:18:06.532Z,1012.8
2023-11-18T14:19:15.701Z,1012.7
2023-11-18T14:20:24.871Z,1012.6
2023-11-18T14:21:34.061Z,1012.6
2023-11-18T14:22:43.238Z,1012.5
2023-11-18T14:23:52.558Z,1012.5
2023-11-18T14:25:01.561Z,1012.5
2023-11-18T14:26:10.764Z,1012.4
2023-11-18T14:27:19.904Z,1012.3
2023-11-18T14:28:29.094Z,1012.3
2023-11-18T14:30:47.522Z,1012.2
2023-11-18T14:31:55.742Z,1012.2
2023-11-18T14:33:04.804Z,1012.1
2023-11-18T14:34:13.961Z,1012.1
2023-11-18T14:35:23.174Z,1012
2023-11-18T14:36:32.352Z,1012
2023-11-18T14:37:41.498Z,1011.9
2023-11-18T14:38:50.677Z,1011.9
2023-11-18T14:39:59.827Z,1011.9
2023-11-18T14:42:18.171Z,1011.9
2023-11-18T14:43:27.354Z,1011.8
2023-11-18T14:44:36.537Z,1011.8
2023-11-18T14:45:45.742Z,1011.7
2023-11-18T14:46:54.005Z,1011.7
2023-11-18T14:48:03.079Z,1011.6
2023-11-18T14:49:12.368Z,1011.6
2023-11-18T14:50:21.444Z,1011.6
2023-11-18T14:51:30.587Z,1011.6
2023-11-18T14:52:39.755Z,1011.5
2023-11-18T14:53:48.944Z,1011.5
2023-11-18T14:54:58.096Z,1011.5
2023-11-18T14:56:07.311Z,1011.4
2023-11-18T14:57:16.444Z,1011.5
2023-11-18T14:58:25.614Z,1011.4
2023-11-18T14:59:34.876Z,1011.4
2023-11-18T15:00:43.994Z,1011.4
2023-11-18T15:01:52.144Z,1011.4
2023-11-18T15:03:01.430Z,1011.3
2023-11-18T15:04:10.501Z,1011.4
2023-11-18T15:05:19.679Z,1011.3
2023-11-18T15:06:28.894Z,1011.4
2023-11-18T15:08:47.401Z,1011.5
2023-11-18T15:09:56.562Z,1011.5